Emmaus, Pennsylvania
Current Conditions -  °F | °C
As of 1:55 PM on Sunday 23 Nov 2014 (Local Time) from KXLL Reporting Station
Clear Clear  
Wind Chill: 59°   Ceiling: Unl
Heat Index: 59°   Visibility: 10mi
Dew Point: 27°   Wind: 8mph
Humidity: 29%   Direction: 180°S
Pressure: 30.13"   Gusts: NA
Location:  40.54°N, 75.49°W
Report Text: KXLL 231855Z AUTO 18007KT 10SM CLR 15/M03 A3013 RMK AO2
Loading
Personal Weather Stations






























Interactive Weather Map New forecast layout! Learn more

10-Day Weather Forecast

Advertisements
Track Severe Weather on mobile